Time;durP1;ratioP1;P1;durP2;ratioP2;P2;SDS_P1;SDS_P2;PMS_P1;PMS_P2;Temp;Humidity;BMP_temperature;BMP_pressure;BME280_temperature;BME280_humidity;BME280_pressure;Samples;Min_cycle;Max_cycle;Signal;HPM_P1;HPM_P2
2023/03/26 00:01:52;;;;;;;;;;;8.10;99.90;;;;;;5056022;28;19955;-74
2023/03/26 00:04:20;;;;;;;;;;;8.10;99.90;;;;;;5036826;28;20352;-75
2023/03/26 00:06:47;;;;;;;;;;;8.10;99.90;;;;;;5055091;28;19909;-75
2023/03/26 00:09:14;;;;;;;;;;;8.10;99.90;;;;;;5055211;28;19912;-75
2023/03/26 00:11:40;;;;;;;;;;;8.10;99.90;;;;;;5055203;28;19909;-75
2023/03/26 00:14:06;;;;;;;;;;;8.10;99.90;;;;;;5056334;28;19904;-75
2023/03/26 00:16:31;;;;;;;;;;;8.10;99.90;;;;;;5037099;28;19938;-75
2023/03/26 00:18:58;;;;;;;;;;;8.20;99.90;;;;;;5055048;28;19904;-75
2023/03/26 00:21:27;;;;;;;;;;;8.10;99.90;;;;;;5054997;28;19963;-75
2023/03/26 00:23:54;;;;;;;;;;;8.20;99.90;;;;;;5036935;28;19911;-75
2023/03/26 00:26:20;;;;;;;;;;;8.20;99.90;;;;;;5037526;28;19905;-75
2023/03/26 00:28:46;;;;;;;;;;;8.10;99.90;;;;;;5037056;28;19915;-74
2023/03/26 00:31:13;;;;;;;;;;;8.90;99.90;;;;;;5054792;28;20018;-74
2023/03/26 00:33:39;;;;;;;;;;;8.20;99.90;;;;;;5036897;28;19954;-75
2023/03/26 00:36:08;;;;;;;;;;;8.10;99.90;;;;;;5055396;28;19911;-75
2023/03/26 00:38:37;;;;;;;;;;;8.20;99.90;;;;;;5036886;28;19909;-75
2023/03/26 00:41:04;;;;;;;;;;;8.30;99.90;;;;;;5054648;28;19908;-75
2023/03/26 00:43:31;;;;;;;;;;;8.20;99.90;;;;;;5054727;28;19965;-75
2023/03/26 00:45:57;;;;;;;;;;;8.30;99.90;;;;;;5054580;28;19904;-75
2023/03/26 00:48:23;;;;;;;;;;;8.20;99.90;;;;;;5054518;28;19911;-75
2023/03/26 00:50:49;;;;;;;;;;;8.20;99.90;;;;;;5054469;28;19904;-74
2023/03/26 00:53:15;;;;;;;;;;;8.20;99.90;;;;;;5054385;28;20382;-75
2023/03/26 00:55:41;;;;;;;;;;;9.30;99.90;;;;;;5036417;28;19904;-75
2023/03/26 00:58:09;;;;;;;;;;;8.20;99.90;;;;;;5036409;28;19952;-75
2023/03/26 01:00:35;;;;;;;;;;;8.20;99.90;;;;;;5036309;28;20430;-75
2023/03/26 01:03:03;;;;;;;;;;;8.10;99.90;;;;;;5054273;28;19905;-75
2023/03/26 01:05:41;;;;;;;;;;;8.10;99.90;;;;;;5054185;28;20256;-75
2023/03/26 01:08:25;;;;;;;;;;;8.10;99.90;;;;;;5036439;28;19905;-75
2023/03/26 01:10:51;;;;;;;;;;;8.10;99.90;;;;;;5054292;28;20279;-75
2023/03/26 01:13:21;;;;;;;;;;;8.30;99.90;;;;;;5036425;28;19905;-75
2023/03/26 01:15:49;;;;;;;;;;;8.30;99.90;;;;;;5035868;28;19970;-74
2023/03/26 01:18:19;;;;;;;;;;;8.20;99.90;;;;;;5053485;28;19908;-75
2023/03/26 01:20:48;;;;;;;;;;;8.20;99.90;;;;;;5053927;28;19959;-74
2023/03/26 01:23:18;;;;;;;;;;;9.70;99.90;;;;;;5036008;28;19909;-75
2023/03/26 01:25:47;;;;;;;;;;;8.20;99.90;;;;;;5036005;28;19909;-75
2023/03/26 01:28:12;;;;;;;;;;;8.20;99.90;;;;;;5054428;28;19904;-75
2023/03/26 01:30:41;;;;;;;;;;;8.10;99.90;;;;;;5035948;28;19912;-74
2023/03/26 01:33:12;;;;;;;;;;;8.10;99.90;;;;;;5035865;28;19904;-75
2023/03/26 01:35:40;;;;;;;;;;;8.10;99.90;;;;;;5035906;28;19905;-75
2023/03/26 01:38:26;;;;;;;;;;;8.10;99.90;;;;;;5054260;28;20354;-76
2023/03/26 01:41:10;;;;;;;;;;;8.10;99.90;;;;;;5035256;28;19909;-75
2023/03/26 01:43:45;;;;;;;;;;;8.10;99.90;;;;;;5053614;28;19904;-75
2023/03/26 01:46:12;;;;;;;;;;;8.10;99.90;;;;;;5035548;28;19904;-74
2023/03/26 01:48:40;;;;;;;;;;;8.10;99.90;;;;;;5035765;28;19909;-74
2023/03/26 01:51:06;;;;;;;;;;;8.10;99.90;;;;;;5035585;28;19904;-75
2023/03/26 01:53:33;;;;;;;;;;;8.10;99.90;;;;;;5053453;28;19904;-74
2023/03/26 01:56:02;;;;;;;;;;;8.10;99.90;;;;;;5053400;28;19947;-74
2023/03/26 01:58:32;;;;;;;;;;;8.10;99.90;;;;;;5035470;28;19908;-74
2023/03/26 02:01:18;;;;;;;;;;;8.10;99.90;;;;;;5053340;28;19912;-74
2023/03/26 02:03:52;;;;;;;;;;;8.10;99.90;;;;;;5035306;28;19924;-74
2023/03/26 02:06:25;;;;;;;;;;;8.10;99.90;;;;;;5035462;28;19905;-74
2023/03/26 02:09:02;;;;;;;;;;;8.10;99.90;;;;;;5053892;28;19950;-75
2023/03/26 02:11:27;;;;;;;;;;;8.20;99.90;;;;;;5035450;28;19943;-74
2023/03/26 02:13:53;;;;;;;;;;;8.20;99.90;;;;;;5035418;28;20030;-74
2023/03/26 02:16:19;;;;;;;;;;;11.80;99.90;;;;;;5053264;28;19905;-74
2023/03/26 02:18:46;;;;;;;;;;;8.20;99.90;;;;;;5035362;28;19904;-75
2023/03/26 02:21:14;;;;;;;;;;;8.30;99.90;;;;;;5035378;28;19915;-76
2023/03/26 02:23:45;;;;;;;;;;;8.40;99.90;;;;;;5053295;28;19905;-76
2023/03/26 02:26:11;;;;;;;;;;;8.30;99.90;;;;;;5053610;28;19905;-75
2023/03/26 02:28:37;;;;;;;;;;;8.30;99.90;;;;;;5055716;28;19905;-74
2023/03/26 02:31:03;;;;;;;;;;;8.40;99.90;;;;;;5057083;28;20319;-76
2023/03/26 02:33:29;;;;;;;;;;;8.40;99.90;;;;;;5039251;28;19984;-76
2023/03/26 02:35:58;;;;;;;;;;;8.40;99.90;;;;;;5057156;28;20025;-74
2023/03/26 02:38:25;;;;;;;;;;;8.40;99.90;;;;;;5039275;28;20032;-76
2023/03/26 02:40:52;;;;;;;;;;;8.50;99.90;;;;;;5056795;28;19996;-75
2023/03/26 02:43:17;;;;;;;;;;;8.50;99.90;;;;;;5039009;28;19911;-75
2023/03/26 02:45:43;;;;;;;;;;;8.50;99.90;;;;;;5038878;28;19909;-75
2023/03/26 02:48:08;;;;;;;;;;;8.60;99.90;;;;;;5038899;28;19959;-75
2023/03/26 02:50:35;;;;;;;;;;;8.60;99.90;;;;;;5038862;28;19911;-75
2023/03/26 02:53:01;;;;;;;;;;;8.50;99.90;;;;;;5038800;28;19909;-75
2023/03/26 02:55:27;;;;;;;;;;;8.50;99.90;;;;;;5056664;28;19959;-75
2023/03/26 02:57:52;;;;;;;;;;;8.60;99.90;;;;;;5038669;28;20003;-75
2023/03/26 03:00:20;;;;;;;;;;;8.60;99.90;;;;;;5056601;28;20431;-75
2023/03/26 03:02:48;;;;;;;;;;;8.60;99.90;;;;;;5038628;28;20290;-75
2023/03/26 03:05:16;;;;;;;;;;;8.70;99.90;;;;;;5056264;28;20379;-75
2023/03/26 03:07:45;;;;;;;;;;;8.60;99.90;;;;;;5057084;28;19908;-75
2023/03/26 03:10:12;;;;;;;;;;;8.70;99.90;;;;;;5039895;28;20256;-75
2023/03/26 03:12:39;;;;;;;;;;;8.60;99.90;;;;;;5038438;28;19904;-75
2023/03/26 03:15:04;;;;;;;;;;;8.60;99.90;;;;;;5056323;28;20042;-75
2023/03/26 03:17:30;;;;;;;;;;;8.70;99.90;;;;;;5039089;28;19962;-75
2023/03/26 03:19:55;;;;;;;;;;;9.30;99.90;;;;;;5056267;28;19913;-75
2023/03/26 03:22:21;;;;;;;;;;;9.10;99.90;;;;;;5056862;28;19947;-75
2023/03/26 03:24:46;;;;;;;;;;;8.50;99.90;;;;;;5056201;28;20374;-75
2023/03/26 03:27:12;;;;;;;;;;;8.50;99.90;;;;;;5038139;28;19905;-73
2023/03/26 03:29:38;;;;;;;;;;;8.50;99.90;;;;;;5038358;28;19904;-75
2023/03/26 03:32:03;;;;;;;;;;;8.50;99.90;;;;;;5038284;28;19952;-74
2023/03/26 03:34:29;;;;;;;;;;;8.40;99.90;;;;;;5038104;28;19905;-74
2023/03/26 03:36:54;;;;;;;;;;;9.50;99.90;;;;;;5038053;28;19968;-74
2023/03/26 03:39:20;;;;;;;;;;;8.40;99.90;;;;;;5054966;28;20275;-75
2023/03/26 03:41:46;;;;;;;;;;;8.40;99.90;;;;;;5037856;28;20311;-74
2023/03/26 03:44:11;;;;;;;;;;;9.10;99.90;;;;;;5055680;28;20323;-75
2023/03/26 03:46:36;;;;;;;;;;;9.40;99.90;;;;;;5037899;28;19905;-75
2023/03/26 03:49:02;;;;;;;;;;;8.50;99.90;;;;;;5037831;28;19952;-75
2023/03/26 03:51:27;;;;;;;;;;;8.40;99.90;;;;;;5055657;28;20260;-75
2023/03/26 03:53:54;;;;;;;;;;;8.50;99.90;;;;;;5037842;28;19909;-75
2023/03/26 03:56:22;;;;;;;;;;;8.50;99.90;;;;;;5055614;28;19904;-75
2023/03/26 03:58:49;;;;;;;;;;;8.50;99.90;;;;;;5037677;28;19905;-75
2023/03/26 04:01:15;;;;;;;;;;;8.50;99.90;;;;;;5055646;28;19995;-75
2023/03/26 04:03:44;;;;;;;;;;;9.20;99.90;;;;;;5055404;28;19904;-75
2023/03/26 04:06:10;;;;;;;;;;;8.40;99.90;;;;;;5037474;28;20292;-74
2023/03/26 04:08:36;;;;;;;;;;;8.50;99.90;;;;;;5055833;28;19912;-74
2023/03/26 04:11:01;;;;;;;;;;;8.40;99.90;;;;;;5055345;28;19995;-74
2023/03/26 04:13:27;;;;;;;;;;;8.40;99.90;;;;;;5055389;28;19951;-74
2023/03/26 04:15:53;;;;;;;;;;;8.50;99.90;;;;;;5037328;28;20007;-74
2023/03/26 04:18:19;;;;;;;;;;;8.40;99.90;;;;;;5055068;28;20268;-74
2023/03/26 04:20:48;;;;;;;;;;;8.40;99.90;;;;;;5037119;28;19909;-74
2023/03/26 04:23:14;;;;;;;;;;;8.50;99.90;;;;;;5037267;28;19936;-74
2023/03/26 04:25:48;;;;;;;;;;;8.50;99.90;;;;;;5054973;28;19904;-74
2023/03/26 04:28:25;;;;;;;;;;;8.50;99.90;;;;;;5037195;28;19909;-74
2023/03/26 04:30:52;;;;;;;;;;;8.50;99.90;;;;;;5054997;28;19912;-74
2023/03/26 04:33:19;;;;;;;;;;;8.50;99.90;;;;;;5036904;28;20363;-74
2023/03/26 04:35:47;;;;;;;;;;;8.50;99.90;;;;;;5054799;28;19987;-74
2023/03/26 04:38:15;;;;;;;;;;;9.10;99.90;;;;;;5037033;28;19904;-75
2023/03/26 04:40:46;;;;;;;;;;;8.50;99.90;;;;;;5036924;28;20369;-74
2023/03/26 04:43:17;;;;;;;;;;;9.40;99.90;;;;;;5055077;28;19905;-74
2023/03/26 04:45:44;;;;;;;;;;;8.50;99.90;;;;;;5036835;28;20014;-75
2023/03/26 04:48:13;;;;;;;;;;;8.50;99.90;;;;;;5036686;28;19911;-75
2023/03/26 04:50:42;;;;;;;;;;;8.50;99.90;;;;;;5054296;28;19904;-76
2023/03/26 04:53:12;;;;;;;;;;;8.50;99.90;;;;;;5054493;28;19929;-76
2023/03/26 04:55:44;;;;;;;;;;;8.50;99.90;;;;;;5036434;28;19950;-74
2023/03/26 04:58:12;;;;;;;;;;;8.50;99.90;;;;;;5054399;28;19987;-74
2023/03/26 05:00:38;;;;;;;;;;;8.50;99.90;;;;;;5036339;28;19917;-74
2023/03/26 05:03:05;;;;;;;;;;;8.50;99.90;;;;;;5054214;28;19985;-74
2023/03/26 05:05:30;;;;;;;;;;;8.50;99.90;;;;;;5036138;28;19966;-75
2023/03/26 05:07:56;;;;;;;;;;;8.50;99.90;;;;;;5036301;28;19984;-74
2023/03/26 05:10:22;;;;;;;;;;;8.50;99.90;;;;;;5054006;28;19991;-75
2023/03/26 05:12:48;;;;;;;;;;;8.50;99.90;;;;;;5036096;28;19911;-74
2023/03/26 05:15:14;;;;;;;;;;;8.50;99.90;;;;;;5036167;28;19908;-74
2023/03/26 05:17:41;;;;;;;;;;;8.50;99.90;;;;;;5036135;28;19931;-75
2023/03/26 05:20:20;;;;;;;;;;;8.50;99.90;;;;;;5053815;28;19915;-75
2023/03/26 05:22:47;;;;;;;;;;;8.50;99.90;;;;;;5036157;28;19905;-75
2023/03/26 05:25:13;;;;;;;;;;;8.50;99.90;;;;;;5036100;28;19913;-75
2023/03/26 05:27:38;;;;;;;;;;;8.50;99.90;;;;;;5053795;28;19908;-75
2023/03/26 05:30:04;;;;;;;;;;;8.50;99.90;;;;;;5035974;28;20340;-75
2023/03/26 05:32:30;;;;;;;;;;;8.50;99.90;;;;;;5053703;28;19911;-75
2023/03/26 05:34:56;;;;;;;;;;;8.50;99.90;;;;;;5036110;28;19904;-75
2023/03/26 05:37:23;;;;;;;;;;;8.50;99.90;;;;;;5035868;28;19955;-74
2023/03/26 05:39:54;;;;;;;;;;;8.40;99.90;;;;;;5035752;28;19927;-75
2023/03/26 05:42:20;;;;;;;;;;;8.50;99.90;;;;;;5054107;28;19904;-75
2023/03/26 05:44:45;;;;;;;;;;;8.50;99.90;;;;;;5053645;28;19905;-75
2023/03/26 05:47:11;;;;;;;;;;;8.40;99.90;;;;;;5053476;28;20382;-76
2023/03/26 05:49:36;;;;;;;;;;;8.60;99.90;;;;;;5035774;28;19905;-76
2023/03/26 05:52:02;;;;;;;;;;;8.40;99.90;;;;;;5035724;28;19904;-76
2023/03/26 05:54:27;;;;;;;;;;;8.40;99.90;;;;;;5053489;28;19904;-76
2023/03/26 05:56:53;;;;;;;;;;;8.40;99.90;;;;;;5053420;28;20059;-76
2023/03/26 05:59:18;;;;;;;;;;;8.30;99.90;;;;;;5053470;28;20023;-76
2023/03/26 06:01:44;;;;;;;;;;;8.40;99.90;;;;;;5035511;28;19916;-76
2023/03/26 06:04:14;;;;;;;;;;;8.40;99.90;;;;;;5038563;28;19913;-76
2023/03/26 06:06:40;;;;;;;;;;;9.00;99.90;;;;;;5039607;28;19911;-76
2023/03/26 06:09:05;;;;;;;;;;;8.30;99.90;;;;;;5039693;28;20345;-76
2023/03/26 06:11:31;;;;;;;;;;;8.30;99.90;;;;;;5057551;28;19911;-76
2023/03/26 06:13:57;;;;;;;;;;;8.30;99.90;;;;;;5057864;28;20358;-76
2023/03/26 06:16:22;;;;;;;;;;;8.30;99.90;;;;;;5057317;28;19905;-77
2023/03/26 06:18:50;;;;;;;;;;;8.30;99.90;;;;;;5057574;28;20268;-77
2023/03/26 06:21:16;;;;;;;;;;;8.30;99.90;;;;;;5039299;28;19916;-77
2023/03/26 06:23:41;;;;;;;;;;;8.40;99.90;;;;;;5057364;28;19905;-76
2023/03/26 06:26:07;;;;;;;;;;;8.30;99.90;;;;;;5039303;28;19905;-77
2023/03/26 06:28:32;;;;;;;;;;;8.40;99.90;;;;;;5057259;28;20267;-77
2023/03/26 06:30:59;;;;;;;;;;;9.00;99.90;;;;;;5039271;28;19904;-77
2023/03/26 06:33:24;;;;;;;;;;;8.40;99.90;;;;;;5039239;28;19905;-77
2023/03/26 06:35:50;;;;;;;;;;;9.30;99.90;;;;;;5056904;28;19970;-77
2023/03/26 06:38:15;;;;;;;;;;;8.40;99.90;;;;;;5057009;28;20367;-76
2023/03/26 06:40:41;;;;;;;;;;;8.40;99.90;;;;;;5056843;28;19966;-77
2023/03/26 06:43:06;;;;;;;;;;;8.40;99.90;;;;;;5056819;28;19983;-76
2023/03/26 06:45:32;;;;;;;;;;;8.50;99.90;;;;;;5056797;28;20420;-76
2023/03/26 06:47:58;;;;;;;;;;;8.50;99.90;;;;;;5056862;28;19904;-77
2023/03/26 06:50:24;;;;;;;;;;;8.70;99.90;;;;;;5038809;28;19908;-76
2023/03/26 06:52:52;;;;;;;;;;;8.50;99.90;;;;;;5038767;28;20283;-76
2023/03/26 06:55:17;;;;;;;;;;;8.50;99.90;;;;;;5056682;28;19905;-76
2023/03/26 06:57:46;;;;;;;;;;;8.50;99.90;;;;;;5038620;28;20270;-76
2023/03/26 07:00:12;;;;;;;;;;;9.70;99.90;;;;;;5038482;28;19916;-75
2023/03/26 07:02:38;;;;;;;;;;;8.50;99.90;;;;;;5038697;28;19956;-76
2023/03/26 07:05:03;;;;;;;;;;;8.50;99.90;;;;;;5038497;28;20353;-76
2023/03/26 07:07:29;;;;;;;;;;;8.50;99.90;;;;;;5056354;28;19908;-76
2023/03/26 07:09:54;;;;;;;;;;;8.60;99.90;;;;;;5056356;28;19904;-75
2023/03/26 07:12:20;;;;;;;;;;;8.60;99.90;;;;;;5056368;28;19904;-76
2023/03/26 07:14:45;;;;;;;;;;;8.60;99.90;;;;;;5054898;28;19911;-76
2023/03/26 07:17:11;;;;;;;;;;;8.60;99.90;;;;;;5038328;28;19904;-75
2023/03/26 07:19:37;;;;;;;;;;;8.60;99.90;;;;;;5038670;28;19975;-75
2023/03/26 07:22:03;;;;;;;;;;;8.70;99.90;;;;;;5056221;28;19909;-75
2023/03/26 07:24:29;;;;;;;;;;;8.70;99.90;;;;;;5056201;28;19905;-75
2023/03/26 07:26:54;;;;;;;;;;;8.70;99.90;;;;;;5056170;28;19904;-75
2023/03/26 07:29:19;;;;;;;;;;;8.70;99.90;;;;;;5038196;28;19904;-75
2023/03/26 07:32:04;;;;;;;;;;;8.80;99.90;;;;;;5038155;28;19905;-76
2023/03/26 07:34:35;;;;;;;;;;;8.80;99.90;;;;;;5038142;28;19911;-75
2023/03/26 07:37:04;;;;;;;;;;;8.90;99.90;;;;;;5055913;28;20324;-75
2023/03/26 07:39:39;;;;;;;;;;;8.90;99.90;;;;;;5055872;28;19904;-76
2023/03/26 07:42:15;;;;;;;;;;;8.90;99.90;;;;;;5056298;28;20374;-76
2023/03/26 07:44:47;;;;;;;;;;;8.90;99.90;;;;;;5037635;28;19912;-76
2023/03/26 07:47:20;;;;;;;;;;;8.90;99.90;;;;;;5037709;28;19912;-76
2023/03/26 07:49:46;;;;;;;;;;;8.90;99.90;;;;;;5037798;28;19935;-75
2023/03/26 07:52:12;;;;;;;;;;;8.90;99.90;;;;;;5055588;28;19905;-75
2023/03/26 07:54:37;;;;;;;;;;;8.80;99.90;;;;;;5055939;28;19956;-75
2023/03/26 07:57:12;;;;;;;;;;;8.80;99.90;;;;;;5055488;28;20260;-76
2023/03/26 07:59:40;;;;;;;;;;;8.80;99.90;;;;;;5037709;28;20378;-76
2023/03/26 08:02:25;;;;;;;;;;;8.90;99.90;;;;;;5038331;28;19927;-76
2023/03/26 08:04:50;;;;;;;;;;;8.90;99.90;;;;;;5037338;28;19913;-76
2023/03/26 08:07:24;;;;;;;;;;;8.80;99.90;;;;;;5055419;28;19909;-76
2023/03/26 08:10:04;;;;;;;;;;;8.90;99.90;;;;;;5037446;28;20386;-76
2023/03/26 08:12:37;;;;;;;;;;;8.90;99.90;;;;;;5055478;28;19904;-76
2023/03/26 08:15:24;;;;;;;;;;;8.90;99.90;;;;;;5037548;28;19909;-76
2023/03/26 08:17:55;;;;;;;;;;;8.80;99.90;;;;;;5055250;28;20386;-76
2023/03/26 08:20:29;;;;;;;;;;;8.80;99.90;;;;;;5055757;28;20260;-77
2023/03/26 08:23:15;;;;;;;;;;;8.90;99.90;;;;;;5055136;28;19904;-76
2023/03/26 08:25:51;;;;;;;;;;;8.80;99.90;;;;;;5036706;28;19905;-76
2023/03/26 08:28:32;;;;;;;;;;;8.90;99.90;;;;;;5037244;28;19909;-76
2023/03/26 08:31:01;;;;;;;;;;;8.90;99.90;;;;;;5054895;28;19968;-77
2023/03/26 08:33:27;;;;;;;;;;;8.90;99.90;;;;;;5036964;28;19911;-76
2023/03/26 08:35:52;;;;;;;;;;;8.90;99.90;;;;;;5036918;28;19909;-76
2023/03/26 08:38:19;;;;;;;;;;;8.90;99.90;;;;;;5054792;28;19904;-76
2023/03/26 08:41:02;;;;;;;;;;;8.90;99.90;;;;;;5036869;28;20409;-76
2023/03/26 08:43:46;;;;;;;;;;;8.90;99.90;;;;;;5036998;28;20287;-77
2023/03/26 08:46:12;;;;;;;;;;;8.80;99.90;;;;;;5036890;28;19904;-76
2023/03/26 08:48:55;;;;;;;;;;;8.70;99.90;;;;;;5054960;28;20280;-76
2023/03/26 08:51:44;;;;;;;;;;;8.60;99.90;;;;;;5054797;28;19904;-76
2023/03/26 08:54:18;;;;;;;;;;;8.60;99.90;;;;;;5037120;28;19948;-76
2023/03/26 08:56:48;;;;;;;;;;;8.60;99.90;;;;;;5054564;28;19909;-75
2023/03/26 08:59:34;;;;;;;;;;;8.50;99.90;;;;;;5036647;28;20287;-76
2023/03/26 09:02:15;;;;;;;;;;;8.50;99.90;;;;;;5036853;28;20318;-76
2023/03/26 09:04:52;;;;;;;;;;;8.50;99.90;;;;;;5054276;28;19999;-76
2023/03/26 09:07:37;;;;;;;;;;;8.40;99.90;;;;;;5036568;28;19962;-76
2023/03/26 09:10:21;;;;;;;;;;;8.40;99.90;;;;;;5036753;28;19905;-75
2023/03/26 09:12:56;;;;;;;;;;;8.40;99.90;;;;;;5037376;28;20236;-76
2023/03/26 09:15:48;;;;;;;;;;;8.40;99.90;;;;;;5036645;28;19950;-76
2023/03/26 09:18:32;;;;;;;;;;;8.40;99.90;;;;;;5054520;28;20375;-74
2023/03/26 09:21:24;;;;;;;;;;;8.40;99.90;;;;;;5054208;28;20279;-76
2023/03/26 09:23:59;;;;;;;;;;;8.30;99.90;;;;;;5036425;28;19911;-76
2023/03/26 09:26:25;;;;;;;;;;;8.30;99.90;;;;;;5054164;28;20368;-76
2023/03/26 09:29:00;;;;;;;;;;;8.40;99.90;;;;;;5054281;28;19962;-75
2023/03/26 09:31:28;;;;;;;;;;;8.40;99.90;;;;;;5036176;28;19919;-77
2023/03/26 09:33:59;;;;;;;;;;;8.40;99.90;;;;;;5036228;28;19908;-76
2023/03/26 09:36:33;;;;;;;;;;;8.40;99.90;;;;;;5054224;28;20359;-74
2023/03/26 09:39:18;;;;;;;;;;;8.40;99.90;;;;;;5053237;28;19948;-74
2023/03/26 09:42:03;;;;;;;;;;;8.30;99.90;;;;;;5054064;28;20350;-74
2023/03/26 09:44:44;;;;;;;;;;;8.40;99.90;;;;;;5054116;28;19911;-74
2023/03/26 09:47:22;;;;;;;;;;;8.30;99.90;;;;;;5054125;28;19904;-73
2023/03/26 09:50:06;;;;;;;;;;;8.40;99.90;;;;;;5053857;28;20440;-74
2023/03/26 09:52:31;;;;;;;;;;;8.40;99.90;;;;;;5036105;28;19912;-74
2023/03/26 09:55:06;;;;;;;;;;;8.30;99.90;;;;;;5053949;28;19905;-75
2023/03/26 09:57:52;;;;;;;;;;;8.40;99.90;;;;;;5053875;28;19905;-74
2023/03/26 10:00:18;;;;;;;;;;;8.50;99.90;;;;;;5053639;28;19916;-75
2023/03/26 10:02:53;;;;;;;;;;;8.50;99.90;;;;;;5035701;28;19909;-76
2023/03/26 10:05:32;;;;;;;;;;;8.50;99.90;;;;;;5053693;28;19936;-74
2023/03/26 10:07:57;;;;;;;;;;;8.50;99.90;;;;;;5035730;28;19912;-74
2023/03/26 10:10:25;;;;;;;;;;;9.50;99.90;;;;;;5054540;28;20260;-74
2023/03/26 10:12:58;;;;;;;;;;;8.60;99.90;;;;;;5035687;28;19954;-74
2023/03/26 10:15:23;;;;;;;;;;;8.60;99.90;;;;;;5053518;28;19915;-73
2023/03/26 10:17:52;;;;;;;;;;;8.70;99.90;;;;;;5053596;28;20003;-74
2023/03/26 10:20:20;;;;;;;;;;;8.70;99.90;;;;;;5053875;28;19908;-74
2023/03/26 10:22:58;;;;;;;;;;;8.80;99.90;;;;;;5035795;28;19904;-75
2023/03/26 10:25:42;;;;;;;;;;;8.80;99.90;;;;;;5035494;28;19916;-74
2023/03/26 10:28:16;;;;;;;;;;;8.80;99.90;;;;;;5053336;28;20292;-74
2023/03/26 10:30:42;;;;;;;;;;;8.80;99.90;;;;;;5035190;28;19908;-75
2023/03/26 10:33:13;;;;;;;;;;;8.70;99.90;;;;;;5052912;28;19912;-75
2023/03/26 10:35:44;;;;;;;;;;;8.80;99.90;;;;;;5035330;28;19907;-75
2023/03/26 10:38:28;;;;;;;;;;;8.70;99.90;;;;;;5053568;28;19940;-75
2023/03/26 10:41:16;;;;;;;;;;;8.70;99.90;;;;;;5035637;28;20386;-76
2023/03/26 10:43:53;;;;;;;;;;;8.70;99.90;;;;;;5036003;28;20003;-75
2023/03/26 10:46:45;;;;;;;;;;;8.70;99.90;;;;;;5053195;28;19905;-75
2023/03/26 10:49:31;;;;;;;;;;;8.70;99.90;;;;;;5014623;28;19912;-75
2023/03/26 10:51:56;;;;;;;;;;;8.70;99.90;;;;;;5056427;28;19905;-74
2023/03/26 10:54:30;;;;;;;;;;;8.80;99.90;;;;;;5057152;28;19927;-74
2023/03/26 10:56:56;;;;;;;;;;;8.70;99.90;;;;;;5038953;28;20287;-74
2023/03/26 10:59:24;;;;;;;;;;;8.90;99.90;;;;;;5038522;28;19912;-74
2023/03/26 11:02:05;;;;;;;;;;;9.00;99.90;;;;;;5037973;28;20399;-76
2023/03/26 11:04:31;;;;;;;;;;;9.00;99.90;;;;;;5038296;28;20287;-74
2023/03/26 11:07:06;;;;;;;;;;;9.00;99.90;;;;;;5056881;28;19908;-75
2023/03/26 11:09:52;;;;;;;;;;;9.10;99.90;;;;;;5056654;28;19912;-75
2023/03/26 11:12:18;;;;;;;;;;;9.20;99.90;;;;;;5056567;28;19911;-75
2023/03/26 11:14:52;;;;;;;;;;;9.20;99.90;;;;;;5038452;28;19908;-75
2023/03/26 11:17:37;;;;;;;;;;;9.20;99.90;;;;;;5038496;28;19927;-75
2023/03/26 11:20:14;;;;;;;;;;;9.20;99.90;;;;;;5038653;28;19909;-74
2023/03/26 11:22:40;;;;;;;;;;;9.30;99.90;;;;;;5038505;28;20394;-74
2023/03/26 11:25:14;;;;;;;;;;;10.60;99.90;;;;;;5056783;28;19905;-74
2023/03/26 11:27:49;;;;;;;;;;;9.50;99.90;;;;;;5056226;28;19964;-75
2023/03/26 11:30:21;;;;;;;;;;;9.60;99.90;;;;;;5056699;28;19913;-75
2023/03/26 11:32:49;;;;;;;;;;;9.70;99.90;;;;;;5038293;28;19909;-75
2023/03/26 11:35:20;;;;;;;;;;;9.80;99.90;;;;;;5056014;28;19909;-75
2023/03/26 11:37:50;;;;;;;;;;;9.70;99.90;;;;;;5056047;28;19951;-75
2023/03/26 11:40:25;;;;;;;;;;;9.60;99.90;;;;;;5055765;28;19912;-75
2023/03/26 11:42:54;;;;;;;;;;;9.60;99.90;;;;;;5038021;28;19904;-75
2023/03/26 11:45:22;;;;;;;;;;;9.60;99.90;;;;;;5055804;28;19904;-74
2023/03/26 11:47:50;;;;;;;;;;;9.60;99.90;;;;;;5037950;28;20386;-75
2023/03/26 11:50:19;;;;;;;;;;;9.90;99.90;;;;;;5037904;28;19911;-75
2023/03/26 11:52:45;;;;;;;;;;;9.70;99.90;;;;;;5055680;28;20010;-76
2023/03/26 11:55:11;;;;;;;;;;;9.80;99.90;;;;;;5055588;28;19905;-75
2023/03/26 11:57:41;;;;;;;;;;;9.80;99.90;;;;;;5055460;28;19905;-75
2023/03/26 12:00:15;;;;;;;;;;;9.90;99.90;;;;;;5055645;28;19916;-75
2023/03/26 12:02:41;;;;;;;;;;;10.00;99.90;;;;;;5037482;28;19936;-75
2023/03/26 12:05:13;;;;;;;;;;;10.00;99.90;;;;;;5055525;28;19961;-75
2023/03/26 12:07:58;;;;;;;;;;;10.00;99.90;;;;;;5037793;28;19911;-75
2023/03/26 12:10:30;;;;;;;;;;;10.00;99.90;;;;;;5038405;28;19905;-75
2023/03/26 12:12:57;;;;;;;;;;;10.00;99.90;;;;;;5037474;28;19905;-75
2023/03/26 12:15:23;;;;;;;;;;;10.20;99.90;;;;;;5055175;28;19993;-74
2023/03/26 12:17:52;;;;;;;;;;;10.20;99.90;;;;;;5037084;28;20322;-75
2023/03/26 12:20:23;;;;;;;;;;;10.40;99.90;;;;;;5055205;28;19909;-75
2023/03/26 12:22:50;;;;;;;;;;;10.50;99.90;;;;;;5055624;28;19909;-75
2023/03/26 12:25:20;;;;;;;;;;;10.60;99.90;;;;;;5055533;28;19944;-75
2023/03/26 12:28:01;;;;;;;;;;;10.70;99.90;;;;;;5054789;28;19909;-74
2023/03/26 12:30:29;;;;;;;;;;;10.60;99.90;;;;;;5054852;28;20368;-74
2023/03/26 12:33:04;;;;;;;;;;;10.70;99.90;;;;;;5054869;28;19905;-75
2023/03/26 12:35:32;;;;;;;;;;;10.70;99.90;;;;;;5036850;28;20318;-75
2023/03/26 12:38:17;;;;;;;;;;;10.80;99.90;;;;;;5054691;28;20342;-75
2023/03/26 12:40:43;;;;;;;;;;;10.90;99.90;;;;;;5055336;28;19913;-75
2023/03/26 12:43:35;;;;;;;;;;;11.00;99.90;;;;;;5054540;28;19912;-75
2023/03/26 12:46:00;;;;;;;;;;;11.30;99.90;;;;;;5033541;28;19909;-74
2023/03/26 12:48:27;;;;;;;;;;;11.50;99.90;;;;;;5036613;28;19972;-74
2023/03/26 12:51:01;;;;;;;;;;;11.60;99.90;;;;;;5054473;28;19922;-75
2023/03/26 12:53:45;;;;;;;;;;;11.80;99.90;;;;;;5054368;28;19904;-75
2023/03/26 12:56:18;;;;;;;;;;;11.80;99.90;;;;;;5036434;28;20387;-75
2023/03/26 12:59:03;;;;;;;;;;;11.80;99.90;;;;;;5036489;28;19991;-75
2023/03/26 13:01:28;;;;;;;;;;;11.90;99.90;;;;;;5036232;28;19909;-75
2023/03/26 13:04:13;;;;;;;;;;;11.80;99.90;;;;;;5036190;28;19915;-75
2023/03/26 13:06:52;;;;;;;;;;;11.70;99.90;;;;;;5036234;28;19905;-75
2023/03/26 13:09:37;;;;;;;;;;;11.80;99.90;;;;;;5054201;28;20292;-75
2023/03/26 13:12:17;;;;;;;;;;;11.90;99.90;;;;;;5054005;28;20434;-75
2023/03/26 13:15:12;;;;;;;;;;;11.80;99.90;;;;;;5036199;28;19905;-75
2023/03/26 13:17:38;;;;;;;;;;;11.80;99.90;;;;;;5040484;28;19904;-75
2023/03/26 13:20:20;;;;;;;;;;;11.70;99.90;;;;;;5053996;28;20268;-75
2023/03/26 13:22:46;;;;;;;;;;;11.60;99.90;;;;;;5054007;28;20279;-75
2023/03/26 13:25:20;;;;;;;;;;;11.40;99.90;;;;;;5036039;28;19905;-76
2023/03/26 13:27:51;;;;;;;;;;;11.30;99.90;;;;;;5053811;28;19905;-74
2023/03/26 13:30:30;;;;;;;;;;;11.20;99.90;;;;;;5053725;28;20003;-75
2023/03/26 13:33:03;;;;;;;;;;;11.20;99.90;;;;;;5054074;28;20321;-77
2023/03/26 13:35:38;;;;;;;;;;;11.20;99.90;;;;;;5036043;28;19904;-76
2023/03/26 13:38:03;;;;;;;;;;;11.20;99.90;;;;;;5054335;28;19909;-76
2023/03/26 13:40:39;;;;;;;;;;;11.20;99.90;;;;;;5054154;28;19915;-76
2023/03/26 13:43:11;;;;;;;;;;;11.30;99.90;;;;;;5053743;28;20340;-74
2023/03/26 13:45:52;;;;;;;;;;;11.50;99.90;;;;;;5053547;28;20288;-74
2023/03/26 13:48:23;;;;;;;;;;;11.60;99.90;;;;;;5053615;28;19904;-74
2023/03/26 13:51:05;;;;;;;;;;;11.70;99.90;;;;;;5053540;28;19905;-74
2023/03/26 13:53:35;;;;;;;;;;;11.80;99.90;;;;;;5035690;28;20406;-74
2023/03/26 13:56:01;;;;;;;;;;;11.80;99.90;;;;;;5035743;28;19911;-75
2023/03/26 13:58:55;;;;;;;;;;;11.60;99.90;;;;;;5053551;28;20372;-75
2023/03/26 14:01:35;;;;;;;;;;;11.60;99.90;;;;;;4983534;28;19909;-75
2023/03/26 14:04:20;;;;;;;;;;;11.30;99.90;;;;;;5033069;28;20401;-75
2023/03/26 14:06:56;;;;;;;;;;;11.30;99.90;;;;;;5052916;28;19919;-75
2023/03/26 14:09:28;;;;;;;;;;;11.10;99.90;;;;;;5035830;28;20382;-76
2023/03/26 14:11:57;;;;;;;;;;;11.00;99.90;;;;;;5035129;28;19920;-74
2023/03/26 14:14:42;;;;;;;;;;;11.00;99.90;;;;;;5053899;28;19912;-75
2023/03/26 14:17:22;;;;;;;;;;;11.00;99.90;;;;;;5053517;28;19904;-76
2023/03/26 14:20:07;;;;;;;;;;;10.90;99.90;;;;;;5053472;28;19987;-75
2023/03/26 14:22:46;;;;;;;;;;;10.90;99.90;;;;;;5035738;28;19904;-75
2023/03/26 14:25:23;;;;;;;;;;;10.90;99.90;;;;;;5056720;28;19995;-73
2023/03/26 14:27:56;;;;;;;;;;;10.90;99.90;;;;;;5057500;28;19905;-75
2023/03/26 14:30:33;;;;;;;;;;;10.80;99.90;;;;;;5039785;28;19905;-74
2023/03/26 14:33:11;;;;;;;;;;;10.80;99.90;;;;;;5057746;28;20375;-75
2023/03/26 14:35:41;;;;;;;;;;;10.70;99.90;;;;;;5058143;28;20401;-75
2023/03/26 14:38:10;;;;;;;;;;;10.60;99.90;;;;;;5058134;28;19942;-75
2023/03/26 14:40:45;;;;;;;;;;;10.70;99.90;;;;;;5057634;28;19983;-75
2023/03/26 14:43:10;;;;;;;;;;;10.70;99.90;;;;;;5039659;28;19905;-75
2023/03/26 14:45:41;;;;;;;;;;;10.80;99.90;;;;;;5057035;28;19905;-75
2023/03/26 14:48:07;;;;;;;;;;;11.10;99.90;;;;;;5039539;28;19905;-74
2023/03/26 14:50:53;;;;;;;;;;;11.20;99.90;;;;;;5057033;28;20038;-75